Data for 07/05/2016

Time Sea-Level Adjusted Pressure Absolute Pressure Temperature Relative Humidity Dew Point   
(mb) (inHg) (mb) (inHg) (C) (F) (%) (C) (F)
00:05 1018 30.06 848 25.04 15 59 33 -1.2 29.8
00:10 1018 30.06 848 25.04 15 58.9 34 -0.9 30.4
00:15 1018 30.06 848 25.04 14.8 58.6 34 -0.9 30.4
00:20 1018 30.06 848 25.04 14.5 58.2 33 -1.4 29.4
00:25 1018 30.06 848 25.04 14.5 58.1 33 -1.4 29.5
00:30 1018 30.06 848 25.04 14.5 58 36 -0.5 31.1
00:35 1019 30.09 848 25.04 14.3 57.7 35 -1.1 30.1
00:40 1019 30.09 848 25.04 14.2 57.6 33 -1.6 29.1
00:45 1018 30.06 848 25.04 14.4 58 33 -1.5 29.2
00:50 1018 30.06 848 25.04 14.5 58 36 -0.2 31.6
00:55 1018 30.06 848 25.04 14 57.2 38 0 32.1
01:00 1018 30.06 848 25.04 13.4 56.1 39 -0.1 31.7
01:05 1018 30.06 848 25.04 13.2 55.8 39 -0.3 31.5
01:10 1018 30.06 848 25.04 13.3 55.9 39 -0.4 31.3
01:15 1018 30.06 848 25.04 13.3 55.9 39 -0.2 31.6
01:20 1018 30.06 848 25.04 13.1 55.7 40 0 32.1
01:25 1018 30.06 848 25.04 12.9 55.2 43 0.8 33.5
01:30 1018 30.06 848 25.04 12.5 54.4 45 1 33.9
01:35 1018 30.06 848 25.04 12.4 54.2 45 0.8 33.4
01:40 1018 30.06 848 25.04 12.3 54.2 46 1 33.8
01:45 1018 30.06 848 25.04 12.1 53.8 47 1.2 34.1
01:50 1018 30.06 848 25.04 11.8 53.2 48 1.1 33.9
01:55 1018 30.06 848 25.04 11.8 53.2 44 0 32.1
02:00 1018 30.06 848 25.04 12 53.6 44 0.1 32.3
02:05 1018 30.06 848 25.04 12.1 53.7 44 0.3 32.6
02:10 1018 30.06 848 25.04 12.1 53.8 44 0.4 32.6
02:15 1018 30.06 848 25.04 12 53.7 45 0.6 33
02:20 1018 30.06 848 25.04 11.8 53.2 46 0.6 33.1
02:25 1018 30.06 848 25.04 11.6 52.9 45 0.2 32.4
02:30 1018 30.06 848 25.04 11.5 52.7 45 0.1 32.2
02:35 1018 30.06 848 25.04 11.4 52.5 45 -0 32
02:40 1018 30.06 848 25.04 11.5 52.6 45 0.1 32.2
02:45 1018 30.06 848 25.04 11.4 52.4 45 -0.1 31.8
02:50 1018 30.06 848 25.04 11.5 52.7 44 -0.2 31.6
02:55 1018 30.06 848 25.04 11.5 52.7 44 -0.2 31.6
03:00 1018 30.06 848 25.04 11.5 52.7 45 0 32.1
03:05 1018 30.06 848 25.04 11.6 52.8 45 -0 31.9
03:10 1018 30.06 848 25.04 11.6 52.9 45 0.3 32.5
03:15 1018 30.06 848 25.04 11.4 52.5 45 -0 31.9
03:20 1018 30.06 848 25.04 11.3 52.3 47 0.4 32.7
03:25 1018 30.06 848 25.04 10.9 51.7 48 0.3 32.6
03:30 1018 30.06 848 25.04 10.5 50.9 54 1.6 34.9
03:35 1018 30.06 848 25.04 9.8 49.6 53 0.8 33.4
03:40 1018 30.06 848 25.04 10 50 49 -0.1 31.8
03:45 1018 30.06 848 25.04 10.1 50.3 49 -0.1 31.8
03:50 1018 30.06 848 25.04 10.2 50.3 50 0.2 32.3
03:55 1018 30.06 848 25.04 10 50.1 48 -0.3 31.4
04:00 1018 30.06 848 25.04 10.3 50.6 47 -0.4 31.3
04:05 1019 30.09 848 25.04 10.2 50.3 48 -0.2 31.7
04:10 1019 30.09 848 25.04 10.1 50.2 48 -0.4 31.2
04:15 1019 30.09 848 25.04 10.1 50.1 50 0.2 32.4
04:20 1019 30.09 848 25.04 9.9 49.8 51 0.3 32.6
04:25 1019 30.09 848 25.04 9.7 49.4 53 0.5 32.9
04:30 1019 30.09 848 25.04 9.4 49 52 0.2 32.4
04:35 1019 30.09 848 25.04 9.4 48.9 52 0.2 32.3
04:40 1019 30.09 848 25.04 9.4 48.8 52 0.1 32.1
04:45 1019 30.09 848 25.04 9 48.2 59 1.5 34.6
04:50 1019 30.09 848 25.04 8.3 46.9 59 0.8 33.5
04:55 1019 30.09 848 25.04 8.2 46.8 57 0.1 32.3
05:00 1019 30.09 848 25.04 8.5 47.4 54 -0.3 31.4
05:05 1019 30.09 848 25.04 9.1 48.3 50 -0.9 30.5
05:10 1019 30.09 848 25.04 9.4 48.9 52 0 32.1
05:15 1019 30.09 848 25.04 9.3 48.7 52 -0.1 31.8
05:20 1019 30.09 848 25.04 9.1 48.3 52 -0.1 31.8
05:25 1019 30.09 848 25.04 9.1 48.3 52 -0.1 31.8
05:30 1019 30.09 848 25.04 9.1 48.4 52 -0.2 31.7
05:35 1019 30.09 848 25.04 9.2 48.6 52 -0 32
05:40 1019 30.09 848 25.04 9.2 48.5 53 0.1 32.1
05:45 1019 30.09 848 25.04 9.4 49 51 -0.1 31.9
05:50 1019 30.09 848 25.04 9.5 49.1 50 -0.3 31.4
05:55 1019 30.09 848 25.04 9.7 49.5 48 -0.6 30.9
06:00 1019 30.09 848 25.04 9.8 49.7 49 -0.4 31.4
06:05 1019 30.09 848 25.04 10.1 50.2 49 -0.2 31.7
06:10 1019 30.09 848 25.04 10.3 50.5 47 -0.4 31.3
06:15 1019 30.09 848 25.04 10.3 50.5 48 -0.1 31.8
06:20 1019 30.09 848 25.04 10.6 51 48 -0.1 31.8
06:25 1019 30.09 848 25.04 10.9 51.7 45 -0.4 31.3
06:30 1019 30.09 848 25.04 11.3 52.3 44 -0.6 30.9
06:35 1019 30.09 848 25.04 11.8 53.2 44 -0.2 31.7
06:40 1019 30.09 848 25.04 12.3 54.2 41 -0.5 31.1
06:45 1019 30.09 848 25.04 12.6 54.6 40 -0.5 31.1
06:50 1019 30.09 848 25.04 13.1 55.7 39 -0.4 31.4
06:55 1019 30.09 848 25.04 13.7 56.6 39 -0.1 31.8
07:00 1019 30.09 848 25.04 13.7 56.6 39 0 32
07:05 1019 30.09 848 25.04 13.7 56.6 39 0.1 32.2
07:10 1019 30.09 848 25.04 14.3 57.8 38 0.4 32.7
07:15 1019 30.09 848 25.04 14.5 58.1 39 0.8 33.5
07:20 1019 30.09 848 25.04 14.6 58.3 39 0.8 33.4
07:25 1019 30.09 848 25.04 14.8 58.7 35 -0.2 31.6
07:30 1019 30.09 848 25.04 15.5 59.9 32 -1.1 30
07:35 1019 30.09 848 25.04 16.2 61.2 30 -1.3 29.7
07:40 1019 30.09 848 25.04 16.6 61.9 30 -1 30.2
07:45 1019 30.09 848 25.04 17 62.5 28 -1.3 29.6
07:50 1019 30.09 848 25.04 16.9 62.3 28 -1.6 29.2
07:55 1019 30.09 848 25.04 17.3 63.2 28 -1.5 29.3
08:00 1019 30.09 848 25.04 17.2 63 28 -1.3 29.6
08:05 1019 30.09 848 25.04 17.3 63.1 28 -1.5 29.4
08:10 1019 30.09 848 25.04 17.3 63.1 28 -1.2 29.8
08:15 1019 30.09 848 25.04 17 62.5 29 -1.1 30
08:20 1019 30.09 848 25.04 16.6 61.8 29 -1.3 29.6
08:25 1019 30.09 848 25.04 16.8 62.3 28 -1.5 29.4
08:30 1019 30.09 848 25.04 17.3 63.2 26 -2.2 28
08:35 1019 30.09 848 25.04 17.1 62.7 29 -0.9 30.3
08:40 1019 30.09 848 25.04 16.8 62.2 29 -1.2 29.8
08:45 1019 30.09 848 25.04 16.8 62.2 29 -1.2 29.8
08:50 1018 30.06 848 25.04 17 62.6 29 -1 30.3
08:55 1018 30.06 848 25.04 17.1 62.7 29 -0.8 30.6
09:00 1018 30.06 847 25.01 17.1 62.7 29 -0.8 30.6
09:05 1018 30.06 847 25.01 16.6 61.9 30 -0.9 30.4
09:10 1018 30.06 847 25.01 16.9 62.3 30 -0.6 31
09:15 1018 30.06 847 25.01 16.8 62.3 30 -1 30.3
09:20 1018 30.06 847 25.01 16.9 62.3 30 -0.9 30.3
09:25 1018 30.06 847 25.01 17.8 64 28 -1 30.1
09:30 1018 30.06 847 25.01 17 62.6 29 -1.1 30.1
09:35 1018 30.06 847 25.01 17.2 63 28 -1.5 29.3
09:40 1018 30.06 847 25.01 18.1 64.7 26 -1.8 28.8
09:45 1018 30.06 847 25.01 19.2 66.5 25 -1.1 30
09:50 1018 30.06 847 25.01 19.3 66.8 25 -1.1 30
09:55 1018 30.06 847 25.01 19 66.2 25 -1.1 30
10:00 1018 30.06 847 25.01 19.5 67.1 24 -1.4 29.5
10:05 1018 30.06 847 25.01 19.5 67.1 25 -1 30.3
10:10 1018 30.06 847 25.01 19.8 67.6 24 -1.4 29.5
10:15 1018 30.06 847 25.01 19.4 66.9 24 -1.4 29.5
10:20 1018 30.06 847 25.01 19.8 67.7 23 -2 28.4
10:25 1018 30.06 847 25.01 20 67.9 26 0 32
10:30 1018 30.06 847 25.01 19.7 67.5 26 -0.2 31.7
10:35 1017 30.03 847 25.01 20.1 68.2 23 -1.3 29.7
10:40 1017 30.03 847 25.01 20.7 69.3 23 -0.9 30.5
10:45 1017 30.03 847 25.01 20.5 68.9 23 -1 30.1
10:50 1017 30.03 847 25.01 20.8 69.4 24 -0.1 31.8
10:55 1017 30.03 847 25.01 20.6 69.1 24 -0.2 31.6
11:00 1017 30.03 847 25.01 20.5 68.8 25 0.1 32.2
11:05 1017 30.03 846 24.98 19.8 67.6 27 0.5 32.9
11:10 1017 30.03 846 24.98 20.2 68.3 25 -0.2 31.6
11:15 1017 30.03 846 24.98 20.4 68.8 26 0.3 32.5
11:20 1017 30.03 846 24.98 20 68.1 26 0.3 32.6
11:25 1017 30.03 846 24.98 20.1 68.2 24 -0.8 30.5
11:30 1017 30.03 846 24.98 21.1 69.9 25 0.3 32.6
11:35 1017 30.03 846 24.98 20.6 69.2 24 -0.5 31
11:40 1017 30.03 846 24.98 20.3 68.5 26 0.2 32.4
11:45 1017 30.03 846 24.98 20.3 68.6 25 -0.1 31.7
11:50 1017 30.03 846 24.98 21 69.8 24 -0.1 31.9
11:55 1017 30.03 846 24.98 21.5 70.7 24 0.2 32.4
12:00 1017 30.03 846 24.98 22.1 71.7 22 -0.7 30.8
12:05 1017 30.03 846 24.98 21.4 70.5 25 0.5 32.8
12:10 1017 30.03 846 24.98 21.1 69.9 24 0.1 32.2
12:15 1017 30.03 846 24.98 21.7 71 23 -0.3 31.5
12:20 1017 30.03 846 24.98 22.2 72 22 -0.1 31.8
12:25 1016 30 846 24.98 21.8 71.3 25 1 33.8
12:30 1016 30 846 24.98 22.1 71.8 23 0.2 32.4
12:35 1016 30 846 24.98 21.9 71.5 24 0.5 32.8
12:40 1016 30 846 24.98 21.5 70.8 25 0.9 33.6
12:45 1016 30 846 24.98 21.7 71 23 0.1 32.1
12:50 1016 30 846 24.98 22.3 72.1 22 -0.1 31.8
12:55 1016 30 846 24.98 21.6 70.9 25 0.7 33.3
13:00 1016 30 845 24.95 20.9 69.5 24 -0.2 31.6
13:05 1016 30 845 24.95 21.1 70 26 1.1 33.9
13:10 1016 30 845 24.95 21.1 70 24 -0.2 31.7
13:15 1016 30 845 24.95 21.8 71.2 21 -1.4 29.4
13:20 1016 30 845 24.95 22.2 72 22 -0.3 31.5
13:25 1016 30 845 24.95 22.8 73 21 -0.2 31.6
13:30 1016 30 845 24.95 21.9 71.5 21 -1.1 30
13:35 1016 30 845 24.95 21.4 70.6 23 -0.6 31
13:40 1016 30 845 24.95 22.3 72.1 22 -0.1 31.8
13:45 1016 30 845 24.95 23.3 73.9 21 -0.1 31.8
13:50 1016 30 845 24.95 22.6 72.7 22 -0.1 31.9
13:55 1016 30 845 24.95 22.6 72.7 23 0.5 32.9
14:00 1016 30 845 24.95 21.5 70.6 23 -0.4 31.2
14:05 1016 30 845 24.95 21.4 70.5 23 -0.4 31.3
14:10 1016 30 845 24.95 20.9 69.5 25 0.1 32.3
14:15 1016 30 845 24.95 21.7 71 21 -1.3 29.7
14:20 1016 30 845 24.95 22.2 72 21 -1.2 29.9
14:25 1016 30 845 24.95 21.1 70 22 -1 30.2
14:30 1016 30 845 24.95 21 69.8 23 -1 30.3
14:35 1016 30 845 24.95 21.6 70.8 20 -2 28.4
14:40 1016 30 845 24.95 22.1 71.7 22 -0.8 30.6
14:45 1016 30 845 24.95 22.8 73.1 20 -0.9 30.4
14:50 1016 30 845 24.95 23.3 73.9 21 -0.3 31.5
14:55 1016 30 845 24.95 23.2 73.7 21 -0.4 31.3
15:00 1016 30 845 24.95 22.8 73 21 -0.4 31.3
15:05 1016 30 845 24.95 21.9 71.4 23 -0.1 31.8
15:10 1016 30 845 24.95 22 71.6 22 -0.3 31.4
15:15 1016 30 845 24.95 22.8 73 21 -0.6 31
15:20 1016 30 845 24.95 23.1 73.6 21 -0.1 31.9
15:25 1016 30 845 24.95 22.7 72.9 20 -1.3 29.6
15:30 1016 30 845 24.95 22.8 73 20 -1.4 29.5
15:35 1016 30 845 24.95 23 73.3 21 -0.5 31.1
15:40 1016 30 845 24.95 22.7 72.8 22 -0.1 31.8
15:45 1016 30 845 24.95 22.4 72.4 21 -1.1 30.1
15:50 1016 30 845 24.95 22.2 72 21 -0.9 30.4
15:55 1016 30 845 24.95 22.6 72.7 20 -1.4 29.5
16:00 1016 30 845 24.95 22.7 72.8 20 -1.1 30
16:05 1016 30 845 24.95 22.6 72.7 20 -1.4 29.5
16:10 1016 30 845 24.95 22.6 72.7 20 -1.3 29.7
16:15 1016 30 845 24.95 22.7 72.9 21 -0.3 31.4
16:20 1016 30 845 24.95 22.8 73 21 -0.2 31.6
16:25 1015 29.97 845 24.95 22.8 73 22 0.3 32.6
16:30 1015 29.97 844 24.92 22.9 73.3 23 0.9 33.6
16:35 1015 29.97 844 24.92 23.2 73.7 22 0.5 32.9
16:40 1015 29.97 844 24.92 23.1 73.6 21 -0 31.9
16:45 1015 29.97 844 24.92 23.2 73.8 21 -0.2 31.6
16:50 1015 29.97 844 24.92 24.3 75.7 20 -0.1 31.9
16:55 1015 29.97 844 24.92 24.2 75.6 21 0.4 32.8
17:00 1015 29.97 844 24.92 24 75.2 21 0.3 32.5
17:05 1015 29.97 844 24.92 23.9 75 20 0 32.1
17:10 1015 29.97 844 24.92 23.9 75.1 21 0.7 33.2
17:15 1015 29.97 844 24.92 24.3 75.7 20 0.3 32.6
17:20 1015 29.97 844 24.92 23 73.4 22 0.5 32.8
17:25 1015 29.97 844 24.92 23 73.4 22 0.3 32.6
17:30 1015 29.97 844 24.92 23.2 73.8 23 1 33.7
17:35 1015 29.97 844 24.92 22.8 73.1 22 0.5 32.8
17:40 1015 29.97 844 24.92 22.7 72.8 22 0.1 32.1
17:45 1015 29.97 844 24.92 23.5 74.2 23 1.3 34.3
17:50 1015 29.97 844 24.92 23.8 74.8 24 2.4 36.3
17:55 1015 29.97 844 24.92 23.5 74.3 22 0.8 33.4
18:00 1015 29.97 844 24.92 23.3 73.9 23 1.3 34.4
18:05 1015 29.97 844 24.92 22.8 73.1 24 1.3 34.3
18:10 1015 29.97 844 24.92 22.7 72.8 24 1.2 34.2
18:15 1015 29.97 844 24.92 22.9 73.1 24 1.3 34.3
18:20 1015 29.97 844 24.92 22.7 72.9 25 1.8 35.3
18:25 1015 29.97 844 24.92 22.7 72.8 24 1.5 34.6
18:30 1014 29.94 844 24.92 22.4 72.3 24 0.9 33.7
18:35 1014 29.94 844 24.92 22.3 72.1 25 1.4 34.5
18:40 1014 29.94 844 24.92 22.4 72.4 24 1.3 34.3
18:45 1015 29.97 844 24.92 22.3 72.2 24 1.3 34.3
18:50 1015 29.97 844 24.92 22.1 71.8 25 1.1 34
18:55 1015 29.97 844 24.92 21.9 71.5 25 1.1 34
19:00 1015 29.97 844 24.92 21.6 70.9 25 0.8 33.4
19:05 1015 29.97 844 24.92 21.7 71 25 0.7 33.3
19:10 1015 29.97 844 24.92 21.7 71.1 26 1.7 35.1
19:15 1015 29.97 844 24.92 21.6 70.8 27 1.7 35.1
19:20 1015 29.97 844 24.92 21.4 70.5 22 -1 30.1
19:25 1015 29.97 844 24.92 21.1 70 22 -1.4 29.6
19:30 1015 29.97 844 24.92 21 69.7 23 -0.9 30.4
19:35 1015 29.97 844 24.92 20.8 69.5 22 -1.3 29.7
19:40 1015 29.97 844 24.92 20.8 69.4 23 -1.2 29.8
19:45 1015 29.97 844 24.92 20.8 69.4 24 -0.4 31.3
19:50 1015 29.97 844 24.92 20.6 69.1 29 2.2 36
19:55 1015 29.97 844 24.92 20.1 68.3 31 2.5 36.5
20:00 1015 29.97 844 24.92 19.9 67.8 32 2.7 36.8
20:05 1015 29.97 844 24.92 19.8 67.6 32 2.7 36.8
20:10 1015 29.97 844 24.92 19.6 67.3 32 2.8 37.1
20:15 1015 29.97 844 24.92 19.5 67.1 32 2.6 36.7
20:20 1015 29.97 844 24.92 19.4 66.8 32 2.4 36.3
20:25 1015 29.97 844 24.92 19.3 66.8 31 2 35.6
20:30 1015 29.97 844 24.92 19.3 66.7 30 1.6 34.8
20:35 1015 29.97 844 24.92 19.3 66.7 29 1.1 34
20:40 1015 29.97 844 24.92 19.2 66.5 29 0.9 33.7
20:45 1015 29.97 844 24.92 19.3 66.7 28 0.4 32.7
20:50 1015 29.97 844 24.92 19.4 66.9 28 0.5 32.9
20:55 1015 29.97 844 24.92 19.4 66.8 28 0.6 33
21:00 1015 29.97 844 24.92 19.3 66.7 28 0.7 33.2
21:05 1015 29.97 845 24.95 19.2 66.6 28 0.6 33.1
21:10 1015 29.97 845 24.95 19.1 66.4 29 0.9 33.6
21:15 1015 29.97 845 24.95 19 66.3 29 0.9 33.5
21:20 1015 29.97 845 24.95 18.9 66.1 30 0.9 33.7
21:25 1015 29.97 845 24.95 18.9 66 29 0.8 33.4
21:30 1015 29.97 845 24.95 19 66.1 29 0.8 33.4
21:35 1015 29.97 845 24.95 18.9 66 30 1 33.8
21:40 1015 29.97 845 24.95 18.7 65.7 30 0.9 33.7
21:45 1015 29.97 845 24.95 18.6 65.5 30 1 33.7
21:50 1015 29.97 845 24.95 18.5 65.3 31 1.2 34.1
21:55 1015 29.97 845 24.95 18.3 65 32 1.3 34.3
22:00 1015 29.97 845 24.95 18.1 64.7 33 1.7 35.1
22:05 1015 29.97 845 24.95 18.1 64.5 33 1.6 35
22:10 1015 29.97 845 24.95 18 64.4 33 1.8 35.2
22:15 1015 29.97 845 24.95 17.9 64.3 33 1.6 35
22:20 1015 29.97 844 24.92 18 64.4 34 1.9 35.4
22:25 1015 29.97 845 24.95 17.8 64 38 3.4 38.1
22:30 1015 29.97 845 24.95 17 62.5 42 4.1 39.3
22:35 1015 29.97 845 24.95 16.4 61.4 44 4 39.2
22:40 1015 29.97 845 24.95 16.4 61.5 43 3.8 38.9
22:45 1015 29.97 845 24.95 16.4 61.4 43 4 39.2
22:50 1015 29.97 845 24.95 16.3 61.3 44 4.2 39.6
22:55 1015 29.97 845 24.95 16.2 61.2 48 5.3 41.5
23:00 1015 29.97 845 24.95 15.8 60.5 46 4.2 39.6
23:05 1015 29.97 845 24.95 15.8 60.4 44 3.6 38.5
23:10 1015 29.97 845 24.95 15.8 60.5 44 3.7 38.7
23:15 1016 30 845 24.95 15.8 60.4 47 4.5 40.1
23:20 1016 30 845 24.95 15.4 59.8 47 4.3 39.8
23:25 1015 29.97 845 24.95 15.1 59.3 40 1.6 34.9
23:30 1016 30 845 24.95 15.7 60.3 43 3.3 37.9
23:35 1015 29.97 845 24.95 16 60.7 42 3.3 37.9
23:40 1015 29.97 845 24.95 15.9 60.6 35 0.7 33.2
23:45 1015 29.97 845 24.95 16.6 61.9 37 1.9 35.5
23:50 1015 29.97 845 24.95 16.8 62.2 34 0.8 33.4
23:55 1015 29.97 845 24.95 17.1 62.7 34 1 33.8
24:00 1015 29.97 845 24.95 16.8 62.3 34 0.9 33.6